sensor_id;sensor_type;location;lat;lon;timestamp;pressure;altitude;pressure_sealevel;temperature;humidity
43804;BME280;29430;52.924;-2.388;2023-04-15T00:00:57;98761.13;;;6.41;100.00
43804;BME280;29430;52.924;-2.388;2023-04-15T00:05:50;98771.69;;;6.42;100.00
43804;BME280;29430;52.924;-2.388;2023-04-15T00:10:42;98765.72;;;6.40;100.00
43804;BME280;29430;52.924;-2.388;2023-04-15T00:15:34;98778.56;;;6.38;100.00
43804;BME280;29430;52.924;-2.388;2023-04-15T00:20:26;98788.31;;;6.33;100.00
43804;BME280;29430;52.924;-2.388;2023-04-15T00:25:18;98785.25;;;6.29;100.00
43804;BME280;29430;52.924;-2.388;2023-04-15T00:30:10;98796.63;;;6.31;100.00
43804;BME280;29430;52.924;-2.388;2023-04-15T00:35:02;98807.81;;;6.28;100.00
43804;BME280;29430;52.924;-2.388;2023-04-15T00:39:54;98817.78;;;6.27;100.00
43804;BME280;29430;52.924;-2.388;2023-04-15T00:44:46;98828.72;;;6.33;100.00
43804;BME280;29430;52.924;-2.388;2023-04-15T00:49:37;98834.72;;;6.35;100.00
43804;BME280;29430;52.924;-2.388;2023-04-15T00:54:29;98833.91;;;6.34;100.00
43804;BME280;29430;52.924;-2.388;2023-04-15T00:59:20;98850.88;;;6.35;100.00
43804;BME280;29430;52.924;-2.388;2023-04-15T01:04:12;98855.88;;;6.31;100.00
43804;BME280;29430;52.924;-2.388;2023-04-15T01:09:04;98878.00;;;6.33;100.00
43804;BME280;29430;52.924;-2.388;2023-04-15T01:13:57;98878.88;;;6.34;100.00
43804;BME280;29430;52.924;-2.388;2023-04-15T01:18:49;98874.72;;;6.31;100.00
43804;BME280;29430;52.924;-2.388;2023-04-15T01:23:43;98876.59;;;6.31;100.00
43804;BME280;29430;52.924;-2.388;2023-04-15T01:28:37;98879.50;;;6.22;100.00
43804;BME280;29430;52.924;-2.388;2023-04-15T01:33:29;98895.22;;;6.25;100.00
43804;BME280;29430;52.924;-2.388;2023-04-15T01:38:21;98890.25;;;6.22;100.00
43804;BME280;29430;52.924;-2.388;2023-04-15T01:43:13;98889.22;;;6.23;100.00
43804;BME280;29430;52.924;-2.388;2023-04-15T01:48:05;98905.78;;;6.27;100.00
43804;BME280;29430;52.924;-2.388;2023-04-15T01:52:57;98901.88;;;6.23;100.00
43804;BME280;29430;52.924;-2.388;2023-04-15T01:57:49;98904.38;;;6.24;100.00
43804;BME280;29430;52.924;-2.388;2023-04-15T02:02:41;98913.25;;;6.25;100.00
43804;BME280;29430;52.924;-2.388;2023-04-15T02:07:32;98927.53;;;6.25;100.00
43804;BME280;29430;52.924;-2.388;2023-04-15T02:12:24;98920.53;;;6.24;100.00
43804;BME280;29430;52.924;-2.388;2023-04-15T02:17:16;98932.31;;;6.23;100.00
43804;BME280;29430;52.924;-2.388;2023-04-15T02:22:07;98935.00;;;6.23;100.00
43804;BME280;29430;52.924;-2.388;2023-04-15T02:26:59;98952.84;;;6.24;100.00
43804;BME280;29430;52.924;-2.388;2023-04-15T02:31:52;98951.38;;;6.22;100.00
43804;BME280;29430;52.924;-2.388;2023-04-15T02:36:43;98954.69;;;6.24;100.00
43804;BME280;29430;52.924;-2.388;2023-04-15T02:41:37;98955.75;;;6.23;100.00
43804;BME280;29430;52.924;-2.388;2023-04-15T02:46:28;98958.22;;;6.18;100.00
43804;BME280;29430;52.924;-2.388;2023-04-15T02:51:20;98958.22;;;6.18;100.00
43804;BME280;29430;52.924;-2.388;2023-04-15T02:56:13;98970.84;;;6.17;100.00
43804;BME280;29430;52.924;-2.388;2023-04-15T03:01:09;98979.34;;;6.14;100.00
43804;BME280;29430;52.924;-2.388;2023-04-15T03:06:01;98970.22;;;6.08;100.00
43804;BME280;29430;52.924;-2.388;2023-04-15T03:10:53;98997.13;;;6.08;100.00
43804;BME280;29430;52.924;-2.388;2023-04-15T03:15:45;99008.97;;;6.07;100.00
43804;BME280;29430;52.924;-2.388;2023-04-15T03:20:37;99002.94;;;6.05;100.00
43804;BME280;29430;52.924;-2.388;2023-04-15T03:25:29;99022.41;;;6.01;100.00
43804;BME280;29430;52.924;-2.388;2023-04-15T03:30:21;99014.31;;;6.01;100.00
43804;BME280;29430;52.924;-2.388;2023-04-15T03:35:12;99032.75;;;6.04;100.00
43804;BME280;29430;52.924;-2.388;2023-04-15T03:40:04;99031.13;;;6.03;100.00
43804;BME280;29430;52.924;-2.388;2023-04-15T03:44:56;99034.63;;;6.03;100.00
43804;BME280;29430;52.924;-2.388;2023-04-15T03:49:48;99043.94;;;6.01;100.00
43804;BME280;29430;52.924;-2.388;2023-04-15T03:54:39;99045.81;;;6.00;100.00
43804;BME280;29430;52.924;-2.388;2023-04-15T03:59:31;99055.53;;;6.01;100.00
43804;BME280;29430;52.924;-2.388;2023-04-15T04:04:22;99061.97;;;6.00;100.00
43804;BME280;29430;52.924;-2.388;2023-04-15T04:09:14;99065.25;;;6.02;100.00
43804;BME280;29430;52.924;-2.388;2023-04-15T04:14:06;99065.06;;;5.97;100.00
43804;BME280;29430;52.924;-2.388;2023-04-15T04:18:58;99063.34;;;5.89;100.00
43804;BME280;29430;52.924;-2.388;2023-04-15T04:23:50;99078.03;;;5.87;100.00
43804;BME280;29430;52.924;-2.388;2023-04-15T04:28:41;99082.38;;;5.81;100.00
43804;BME280;29430;52.924;-2.388;2023-04-15T04:33:33;99098.88;;;5.71;100.00
43804;BME280;29430;52.924;-2.388;2023-04-15T04:38:25;99100.69;;;5.57;100.00
43804;BME280;29430;52.924;-2.388;2023-04-15T04:43:16;99112.84;;;5.47;100.00
43804;BME280;29430;52.924;-2.388;2023-04-15T04:48:08;99100.78;;;5.29;100.00
43804;BME280;29430;52.924;-2.388;2023-04-15T04:53:01;99118.34;;;5.25;100.00
43804;BME280;29430;52.924;-2.388;2023-04-15T04:57:52;99128.81;;;5.13;100.00
43804;BME280;29430;52.924;-2.388;2023-04-15T05:02:44;99135.63;;;5.09;100.00
43804;BME280;29430;52.924;-2.388;2023-04-15T05:07:37;99148.22;;;5.09;100.00
43804;BME280;29430;52.924;-2.388;2023-04-15T05:12:29;99148.19;;;5.02;100.00
43804;BME280;29430;52.924;-2.388;2023-04-15T05:17:21;99165.50;;;4.93;100.00
43804;BME280;29430;52.924;-2.388;2023-04-15T05:22:13;99177.44;;;4.90;100.00
43804;BME280;29430;52.924;-2.388;2023-04-15T05:27:05;99196.06;;;4.92;100.00
43804;BME280;29430;52.924;-2.388;2023-04-15T05:31:56;99196.22;;;4.83;100.00
43804;BME280;29430;52.924;-2.388;2023-04-15T05:36:48;99206.25;;;4.75;100.00
43804;BME280;29430;52.924;-2.388;2023-04-15T05:41:40;99199.88;;;4.76;100.00
43804;BME280;29430;52.924;-2.388;2023-04-15T05:46:31;99215.41;;;4.80;100.00
43804;BME280;29430;52.924;-2.388;2023-04-15T05:51:23;99223.72;;;4.86;100.00
43804;BME280;29430;52.924;-2.388;2023-04-15T05:56:14;99244.69;;;4.97;100.00
43804;BME280;29430;52.924;-2.388;2023-04-15T06:01:06;99264.81;;;5.08;100.00
43804;BME280;29430;52.924;-2.388;2023-04-15T06:05:58;99274.41;;;5.17;100.00
43804;BME280;29430;52.924;-2.388;2023-04-15T06:10:51;99282.38;;;5.25;100.00
43804;BME280;29430;52.924;-2.388;2023-04-15T06:15:42;99283.25;;;5.32;100.00
43804;BME280;29430;52.924;-2.388;2023-04-15T06:20:34;99301.81;;;5.27;100.00
43804;BME280;29430;52.924;-2.388;2023-04-15T06:25:26;99305.19;;;5.36;100.00
43804;BME280;29430;52.924;-2.388;2023-04-15T06:30:18;99313.56;;;5.48;100.00
43804;BME280;29430;52.924;-2.388;2023-04-15T06:35:10;99322.53;;;5.55;100.00
43804;BME280;29430;52.924;-2.388;2023-04-15T06:40:02;99324.69;;;5.66;100.00
43804;BME280;29430;52.924;-2.388;2023-04-15T06:44:55;99338.91;;;5.88;100.00
43804;BME280;29430;52.924;-2.388;2023-04-15T06:49:47;99340.75;;;6.16;100.00
43804;BME280;29430;52.924;-2.388;2023-04-15T06:54:38;99354.00;;;6.53;100.00
43804;BME280;29430;52.924;-2.388;2023-04-15T06:59:30;99352.72;;;6.97;100.00
43804;BME280;29430;52.924;-2.388;2023-04-15T07:04:22;99363.38;;;7.45;98.87
43804;BME280;29430;52.924;-2.388;2023-04-15T07:09:14;99363.31;;;8.39;98.47
43804;BME280;29430;52.924;-2.388;2023-04-15T07:14:06;99378.44;;;9.12;90.25
43804;BME280;29430;52.924;-2.388;2023-04-15T07:18:58;99391.34;;;9.10;85.97
43804;BME280;29430;52.924;-2.388;2023-04-15T07:23:50;99404.38;;;8.81;84.07
43804;BME280;29430;52.924;-2.388;2023-04-15T07:28:42;99405.53;;;8.47;86.08
43804;BME280;29430;52.924;-2.388;2023-04-15T07:33:35;99418.16;;;8.66;87.09
43804;BME280;29430;52.924;-2.388;2023-04-15T07:38:27;99428.47;;;8.89;85.80
43804;BME280;29430;52.924;-2.388;2023-04-15T07:43:19;99435.47;;;9.10;84.50
43804;BME280;29430;52.924;-2.388;2023-04-15T07:48:11;99440.59;;;9.25;85.85
43804;BME280;29430;52.924;-2.388;2023-04-15T07:53:03;99446.13;;;9.76;84.85
43804;BME280;29430;52.924;-2.388;2023-04-15T07:57:56;99460.13;;;10.48;84.43
43804;BME280;29430;52.924;-2.388;2023-04-15T08:02:48;99464.31;;;11.25;76.47
43804;BME280;29430;52.924;-2.388;2023-04-15T08:07:40;99474.28;;;11.73;79.79
43804;BME280;29430;52.924;-2.388;2023-04-15T08:12:32;99474.69;;;12.78;75.26
43804;BME280;29430;52.924;-2.388;2023-04-15T08:17:23;99479.16;;;13.49;67.82
43804;BME280;29430;52.924;-2.388;2023-04-15T08:22:15;99485.63;;;14.05;67.77
43804;BME280;29430;52.924;-2.388;2023-04-15T08:27:09;99488.78;;;14.82;65.64
43804;BME280;29430;52.924;-2.388;2023-04-15T08:32:01;99491.31;;;15.55;64.44
43804;BME280;29430;52.924;-2.388;2023-04-15T08:36:53;99503.25;;;15.93;61.38
43804;BME280;29430;52.924;-2.388;2023-04-15T08:41:46;99501.78;;;16.45;59.35
43804;BME280;29430;52.924;-2.388;2023-04-15T08:46:39;99521.16;;;16.76;55.95
43804;BME280;29430;52.924;-2.388;2023-04-15T08:51:33;99524.09;;;16.96;55.70
43804;BME280;29430;52.924;-2.388;2023-04-15T08:56:25;99524.53;;;17.31;55.70
43804;BME280;29430;52.924;-2.388;2023-04-15T09:01:18;99537.25;;;17.58;52.90
43804;BME280;29430;52.924;-2.388;2023-04-15T09:06:11;99547.63;;;17.45;52.82
43804;BME280;29430;52.924;-2.388;2023-04-15T09:11:02;99546.13;;;17.85;53.60
43804;BME280;29430;52.924;-2.388;2023-04-15T09:15:54;99556.38;;;18.16;51.62
43804;BME280;29430;52.924;-2.388;2023-04-15T09:20:47;99569.56;;;18.19;50.88
43804;BME280;29430;52.924;-2.388;2023-04-15T09:25:39;99573.16;;;18.30;50.47
43804;BME280;29430;52.924;-2.388;2023-04-15T09:30:33;99575.38;;;18.94;50.45
43804;BME280;29430;52.924;-2.388;2023-04-15T09:35:25;99576.41;;;19.35;48.25
43804;BME280;29430;52.924;-2.388;2023-04-15T09:40:34;99581.94;;;19.09;47.33
43804;BME280;29430;52.924;-2.388;2023-04-15T09:45:27;99591.81;;;19.25;45.62
43804;BME280;29430;52.924;-2.388;2023-04-15T09:50:20;99601.31;;;19.74;46.52
43804;BME280;29430;52.924;-2.388;2023-04-15T09:55:13;99598.34;;;20.20;46.74
43804;BME280;29430;52.924;-2.388;2023-04-15T10:00:07;99604.19;;;20.09;43.64
43804;BME280;29430;52.924;-2.388;2023-04-15T10:05:01;99623.41;;;19.43;45.58
43804;BME280;29430;52.924;-2.388;2023-04-15T10:09:54;99633.31;;;18.47;43.92
43804;BME280;29430;52.924;-2.388;2023-04-15T10:15:03;99636.66;;;17.80;46.68
43804;BME280;29430;52.924;-2.388;2023-04-15T10:19:55;99642.41;;;17.31;48.01
43804;BME280;29430;52.924;-2.388;2023-04-15T10:24:47;99649.25;;;16.91;48.53
43804;BME280;29430;52.924;-2.388;2023-04-15T10:29:40;99649.56;;;16.67;48.22
43804;BME280;29430;52.924;-2.388;2023-04-15T10:34:33;99655.59;;;16.15;48.35
43804;BME280;29430;52.924;-2.388;2023-04-15T10:39:39;99665.91;;;15.85;50.53
43804;BME280;29430;52.924;-2.388;2023-04-15T10:44:31;99674.44;;;15.72;50.82
43804;BME280;29430;52.924;-2.388;2023-04-15T10:49:24;99667.19;;;15.78;55.17
43804;BME280;29430;52.924;-2.388;2023-04-15T10:54:30;99675.91;;;16.73;55.86
43804;BME280;29430;52.924;-2.388;2023-04-15T10:59:22;99675.66;;;17.40;51.71
43804;BME280;29430;52.924;-2.388;2023-04-15T11:04:14;99679.34;;;17.18;50.87
43804;BME280;29430;52.924;-2.388;2023-04-15T11:09:06;99681.97;;;17.03;49.74
43804;BME280;29430;52.924;-2.388;2023-04-15T11:14:01;99675.28;;;17.26;51.77
43804;BME280;29430;52.924;-2.388;2023-04-15T11:18:54;99675.31;;;17.74;46.95
43804;BME280;29430;52.924;-2.388;2023-04-15T11:23:46;99677.38;;;17.99;46.36
43804;BME280;29430;52.924;-2.388;2023-04-15T11:28:39;99674.63;;;17.94;44.91
43804;BME280;29430;52.924;-2.388;2023-04-15T11:33:31;99679.25;;;17.45;46.27
43804;BME280;29430;52.924;-2.388;2023-04-15T11:38:23;99692.47;;;17.16;47.15
43804;BME280;29430;52.924;-2.388;2023-04-15T11:43:20;99688.03;;;17.47;48.83
43804;BME280;29430;52.924;-2.388;2023-04-15T11:48:13;99688.16;;;18.21;49.62
43804;BME280;29430;52.924;-2.388;2023-04-15T11:53:06;99694.69;;;18.99;48.18
43804;BME280;29430;52.924;-2.388;2023-04-15T12:08:09;99696.56;;;19.55;45.47
43804;BME280;29430;52.924;-2.388;2023-04-15T12:13:05;99700.72;;;19.42;43.88
43804;BME280;29430;52.924;-2.388;2023-04-15T12:17:57;99716.13;;;19.22;42.70
43804;BME280;29430;52.924;-2.388;2023-04-15T12:22:49;99719.69;;;19.07;44.81
43804;BME280;29430;52.924;-2.388;2023-04-15T12:27:41;99735.25;;;18.66;42.76
43804;BME280;29430;52.924;-2.388;2023-04-15T12:32:35;99732.72;;;18.38;44.01
43804;BME280;29430;52.924;-2.388;2023-04-15T12:37:27;99727.78;;;18.40;41.92
43804;BME280;29430;52.924;-2.388;2023-04-15T12:42:19;99730.69;;;18.13;43.42
43804;BME280;29430;52.924;-2.388;2023-04-15T12:47:11;99730.75;;;17.81;43.85
43804;BME280;29430;52.924;-2.388;2023-04-15T12:52:03;99737.25;;;17.64;44.99
43804;BME280;29430;52.924;-2.388;2023-04-15T12:56:55;99747.34;;;17.59;44.69
43804;BME280;29430;52.924;-2.388;2023-04-15T13:01:47;99755.59;;;17.64;45.82
43804;BME280;29430;52.924;-2.388;2023-04-15T13:06:39;99757.97;;;17.50;46.94
43804;BME280;29430;52.924;-2.388;2023-04-15T13:11:31;99757.44;;;17.15;46.77
43804;BME280;29430;52.924;-2.388;2023-04-15T13:16:24;99763.75;;;16.89;47.65
43804;BME280;29430;52.924;-2.388;2023-04-15T13:21:16;99765.19;;;16.74;47.12
43804;BME280;29430;52.924;-2.388;2023-04-15T13:26:08;99774.22;;;16.47;46.98
43804;BME280;29430;52.924;-2.388;2023-04-15T13:30:59;99780.97;;;16.40;48.95
43804;BME280;29430;52.924;-2.388;2023-04-15T13:35:51;99787.56;;;16.22;48.30
43804;BME280;29430;52.924;-2.388;2023-04-15T13:40:43;99801.22;;;16.00;49.61
43804;BME280;29430;52.924;-2.388;2023-04-15T13:45:35;99807.28;;;16.02;49.64
43804;BME280;29430;52.924;-2.388;2023-04-15T13:50:27;99811.56;;;16.15;49.59
43804;BME280;29430;52.924;-2.388;2023-04-15T13:55:18;99808.66;;;16.21;49.47
43804;BME280;29430;52.924;-2.388;2023-04-15T14:00:14;99814.69;;;16.23;49.42
43804;BME280;29430;52.924;-2.388;2023-04-15T14:05:06;99810.41;;;16.10;50.67
43804;BME280;29430;52.924;-2.388;2023-04-15T14:09:58;99814.72;;;16.06;52.17
43804;BME280;29430;52.924;-2.388;2023-04-15T14:14:50;99818.38;;;16.12;51.27
43804;BME280;29430;52.924;-2.388;2023-04-15T14:19:41;99827.25;;;16.19;50.55
43804;BME280;29430;52.924;-2.388;2023-04-15T14:24:33;99824.81;;;16.23;51.13
43804;BME280;29430;52.924;-2.388;2023-04-15T14:29:25;99821.25;;;16.22;50.63
43804;BME280;29430;52.924;-2.388;2023-04-15T14:34:16;99828.56;;;16.17;50.97
43804;BME280;29430;52.924;-2.388;2023-04-15T14:39:08;99823.13;;;16.00;50.45
43804;BME280;29430;52.924;-2.388;2023-04-15T14:44:00;99834.06;;;16.00;49.97
43804;BME280;29430;52.924;-2.388;2023-04-15T14:48:51;99831.16;;;15.72;49.88
43804;BME280;29430;52.924;-2.388;2023-04-15T14:53:44;99827.19;;;15.63;49.97
43804;BME280;29430;52.924;-2.388;2023-04-15T14:58:36;99829.31;;;15.61;49.87
43804;BME280;29430;52.924;-2.388;2023-04-15T15:03:28;99839.13;;;15.57;49.84
43804;BME280;29430;52.924;-2.388;2023-04-15T15:08:20;99832.72;;;15.68;49.87
43804;BME280;29430;52.924;-2.388;2023-04-15T15:13:11;99839.63;;;15.71;50.54
43804;BME280;29430;52.924;-2.388;2023-04-15T15:18:03;99848.56;;;15.66;50.85
43804;BME280;29430;52.924;-2.388;2023-04-15T15:22:55;99854.28;;;15.65;50.45
43804;BME280;29430;52.924;-2.388;2023-04-15T15:27:47;99843.66;;;15.68;51.36
43804;BME280;29430;52.924;-2.388;2023-04-15T15:32:40;99848.16;;;15.74;51.60
43804;BME280;29430;52.924;-2.388;2023-04-15T15:37:32;99840.97;;;15.85;50.93
43804;BME280;29430;52.924;-2.388;2023-04-15T15:42:24;99830.41;;;15.94;50.64
43804;BME280;29430;52.924;-2.388;2023-04-15T15:47:15;99830.91;;;15.91;49.73
43804;BME280;29430;52.924;-2.388;2023-04-15T15:52:07;99841.22;;;15.84;48.53
43804;BME280;29430;52.924;-2.388;2023-04-15T15:56:59;99837.97;;;15.87;49.08
43804;BME280;29430;52.924;-2.388;2023-04-15T16:01:50;99845.09;;;15.88;49.65
43804;BME280;29430;52.924;-2.388;2023-04-15T16:06:42;99827.59;;;15.89;49.33
43804;BME280;29430;52.924;-2.388;2023-04-15T16:11:35;99834.06;;;15.83;48.54
43804;BME280;29430;52.924;-2.388;2023-04-15T16:16:26;99839.38;;;15.72;50.58
43804;BME280;29430;52.924;-2.388;2023-04-15T16:21:20;99852.69;;;15.69;49.67
43804;BME280;29430;52.924;-2.388;2023-04-15T16:26:11;99858.31;;;15.45;51.40
43804;BME280;29430;52.924;-2.388;2023-04-15T16:31:03;99870.28;;;15.27;51.75
43804;BME280;29430;52.924;-2.388;2023-04-15T16:35:55;99874.81;;;15.04;52.52
43804;BME280;29430;52.924;-2.388;2023-04-15T16:40:46;99872.91;;;14.93;53.89
43804;BME280;29430;52.924;-2.388;2023-04-15T16:45:38;99873.66;;;14.89;53.81
43804;BME280;29430;52.924;-2.388;2023-04-15T16:50:30;99883.75;;;14.88;54.02
43804;BME280;29430;52.924;-2.388;2023-04-15T16:55:21;99881.41;;;14.80;54.18
43804;BME280;29430;52.924;-2.388;2023-04-15T17:00:13;99883.53;;;14.78;54.56
43804;BME280;29430;52.924;-2.388;2023-04-15T17:05:06;99889.22;;;14.76;55.94
43804;BME280;29430;52.924;-2.388;2023-04-15T17:09:58;99891.06;;;14.71;54.61
43804;BME280;29430;52.924;-2.388;2023-04-15T17:14:50;99894.97;;;14.63;54.89
43804;BME280;29430;52.924;-2.388;2023-04-15T17:19:41;99903.25;;;14.56;54.44
43804;BME280;29430;52.924;-2.388;2023-04-15T17:24:34;99901.94;;;14.47;54.97
43804;BME280;29430;52.924;-2.388;2023-04-15T17:29:26;99897.44;;;14.41;55.92
43804;BME280;29430;52.924;-2.388;2023-04-15T17:34:17;99896.75;;;14.33;56.17
43804;BME280;29430;52.924;-2.388;2023-04-15T17:39:09;99891.78;;;14.30;55.65
43804;BME280;29430;52.924;-2.388;2023-04-15T17:44:01;99890.09;;;14.18;56.86
43804;BME280;29430;52.924;-2.388;2023-04-15T17:48:53;99892.72;;;14.01;56.62
43804;BME280;29430;52.924;-2.388;2023-04-15T17:53:45;99902.41;;;13.85;57.00
43804;BME280;29430;52.924;-2.388;2023-04-15T17:58:37;99899.66;;;13.73;57.47
43804;BME280;29430;52.924;-2.388;2023-04-15T18:03:29;99899.66;;;13.61;57.27
43804;BME280;29430;52.924;-2.388;2023-04-15T18:08:21;99897.94;;;13.48;58.01
43804;BME280;29430;52.924;-2.388;2023-04-15T18:13:13;99898.97;;;13.35;57.87
43804;BME280;29430;52.924;-2.388;2023-04-15T18:18:04;99906.59;;;13.26;58.62
43804;BME280;29430;52.924;-2.388;2023-04-15T18:22:56;99916.31;;;13.22;58.39
43804;BME280;29430;52.924;-2.388;2023-04-15T18:27:48;99922.28;;;13.13;58.76
43804;BME280;29430;52.924;-2.388;2023-04-15T18:32:40;99923.06;;;13.01;59.63
43804;BME280;29430;52.924;-2.388;2023-04-15T18:37:32;99933.19;;;12.94;59.76
43804;BME280;29430;52.924;-2.388;2023-04-15T18:42:24;99931.84;;;12.85;59.98
43804;BME280;29430;52.924;-2.388;2023-04-15T18:47:16;99936.16;;;12.74;60.39
43804;BME280;29430;52.924;-2.388;2023-04-15T18:52:09;99945.09;;;12.63;60.90
43804;BME280;29430;52.924;-2.388;2023-04-15T18:57:00;99940.19;;;12.53;60.79
43804;BME280;29430;52.924;-2.388;2023-04-15T19:01:54;99944.00;;;12.45;60.54
43804;BME280;29430;52.924;-2.388;2023-04-15T19:06:46;99948.69;;;12.38;60.36
43804;BME280;29430;52.924;-2.388;2023-04-15T19:11:38;99947.44;;;12.34;59.99
43804;BME280;29430;52.924;-2.388;2023-04-15T19:16:30;99960.31;;;12.27;59.25
43804;BME280;29430;52.924;-2.388;2023-04-15T19:21:22;99964.97;;;12.20;59.61
43804;BME280;29430;52.924;-2.388;2023-04-15T19:26:13;99963.13;;;12.13;59.31
43804;BME280;29430;52.924;-2.388;2023-04-15T19:31:05;99969.66;;;12.06;60.40
43804;BME280;29430;52.924;-2.388;2023-04-15T19:36:03;99973.06;;;12.01;60.59
43804;BME280;29430;52.924;-2.388;2023-04-15T19:40:55;99980.19;;;11.95;61.19
43804;BME280;29430;52.924;-2.388;2023-04-15T19:45:47;99979.19;;;11.90;61.12
43804;BME280;29430;52.924;-2.388;2023-04-15T19:50:42;99981.09;;;11.82;61.19
43804;BME280;29430;52.924;-2.388;2023-04-15T19:55:34;99987.63;;;11.75;61.32
43804;BME280;29430;52.924;-2.388;2023-04-15T20:00:26;99983.91;;;11.69;62.35
43804;BME280;29430;52.924;-2.388;2023-04-15T20:05:17;99974.53;;;11.65;61.76
43804;BME280;29430;52.924;-2.388;2023-04-15T20:10:09;99977.69;;;11.62;62.26
43804;BME280;29430;52.924;-2.388;2023-04-15T20:15:04;99994.00;;;11.62;62.18
43804;BME280;29430;52.924;-2.388;2023-04-15T20:19:56;99980.41;;;11.55;61.97
43804;BME280;29430;52.924;-2.388;2023-04-15T20:24:48;99976.50;;;11.51;62.62
43804;BME280;29430;52.924;-2.388;2023-04-15T20:29:39;99987.78;;;11.48;62.65
43804;BME280;29430;52.924;-2.388;2023-04-15T20:34:31;99996.16;;;11.40;62.93
43804;BME280;29430;52.924;-2.388;2023-04-15T20:39:23;99993.06;;;11.36;63.17
43804;BME280;29430;52.924;-2.388;2023-04-15T20:44:15;99993.06;;;11.36;63.27
43804;BME280;29430;52.924;-2.388;2023-04-15T20:49:07;100006.03;;;11.27;62.72
43804;BME280;29430;52.924;-2.388;2023-04-15T20:53:58;100008.59;;;11.22;63.81
43804;BME280;29430;52.924;-2.388;2023-04-15T20:58:50;100015.06;;;11.21;64.07
43804;BME280;29430;52.924;-2.388;2023-04-15T21:03:41;100026.56;;;11.17;64.32
43804;BME280;29430;52.924;-2.388;2023-04-15T21:08:33;100021.16;;;11.10;64.02
43804;BME280;29430;52.924;-2.388;2023-04-15T21:13:25;100015.53;;;11.05;64.31
43804;BME280;29430;52.924;-2.388;2023-04-15T21:18:16;100018.47;;;11.03;64.06
43804;BME280;29430;52.924;-2.388;2023-04-15T21:23:08;100027.25;;;10.99;64.55
43804;BME280;29430;52.924;-2.388;2023-04-15T21:28:03;100026.81;;;10.95;65.00
43804;BME280;29430;52.924;-2.388;2023-04-15T21:32:55;100033.53;;;10.92;65.09
43804;BME280;29430;52.924;-2.388;2023-04-15T21:37:46;100040.59;;;10.93;65.23
43804;BME280;29430;52.924;-2.388;2023-04-15T21:42:38;100041.03;;;10.90;65.81
43804;BME280;29430;52.924;-2.388;2023-04-15T21:47:30;100047.94;;;10.86;65.12
43804;BME280;29430;52.924;-2.388;2023-04-15T21:52:41;100052.72;;;10.84;65.69
43804;BME280;29430;52.924;-2.388;2023-04-15T21:57:33;100053.56;;;10.78;66.17
43804;BME280;29430;52.924;-2.388;2023-04-15T22:02:25;100069.03;;;10.78;66.12
43804;BME280;29430;52.924;-2.388;2023-04-15T22:07:17;100061.53;;;10.73;65.45
43804;BME280;29430;52.924;-2.388;2023-04-15T22:12:08;100064.66;;;10.70;66.09
43804;BME280;29430;52.924;-2.388;2023-04-15T22:17:00;100059.84;;;10.65;66.32
43804;BME280;29430;52.924;-2.388;2023-04-15T22:21:52;100057.78;;;10.61;66.76
43804;BME280;29430;52.924;-2.388;2023-04-15T22:26:43;100062.38;;;10.60;66.98
43804;BME280;29430;52.924;-2.388;2023-04-15T22:31:35;100061.53;;;10.53;67.08
43804;BME280;29430;52.924;-2.388;2023-04-15T22:36:27;100070.09;;;10.50;67.21
43804;BME280;29430;52.924;-2.388;2023-04-15T22:41:21;100074.28;;;10.46;67.21
43804;BME280;29430;52.924;-2.388;2023-04-15T22:46:13;100061.13;;;10.43;68.25
43804;BME280;29430;52.924;-2.388;2023-04-15T22:51:04;100066.97;;;10.39;67.83
43804;BME280;29430;52.924;-2.388;2023-04-15T22:55:56;100070.50;;;10.40;68.01
43804;BME280;29430;52.924;-2.388;2023-04-15T23:00:48;100073.63;;;10.37;68.31
43804;BME280;29430;52.924;-2.388;2023-04-15T23:05:40;100064.69;;;10.36;68.82
43804;BME280;29430;52.924;-2.388;2023-04-15T23:10:32;100071.13;;;10.35;68.73
43804;BME280;29430;52.924;-2.388;2023-04-15T23:15:24;100065.09;;;10.33;69.08
43804;BME280;29430;52.924;-2.388;2023-04-15T23:20:16;100069.25;;;10.36;69.83
43804;BME280;29430;52.924;-2.388;2023-04-15T23:25:08;100073.03;;;10.35;69.81
43804;BME280;29430;52.924;-2.388;2023-04-15T23:29:59;100080.69;;;10.31;70.08
43804;BME280;29430;52.924;-2.388;2023-04-15T23:34:51;100071.94;;;10.29;70.35
43804;BME280;29430;52.924;-2.388;2023-04-15T23:39:43;100072.13;;;10.28;70.28
43804;BME280;29430;52.924;-2.388;2023-04-15T23:44:35;100076.28;;;10.24;70.46
43804;BME280;29430;52.924;-2.388;2023-04-15T23:49:28;100081.72;;;10.24;70.92
43804;BME280;29430;52.924;-2.388;2023-04-15T23:54:20;100069.84;;;10.25;70.82
43804;BME280;29430;52.924;-2.388;2023-04-15T23:59:12;100069.84;;;10.25;70.89
